DLH85K EDDC-HECA
Flight info
| Callsign | DLH85K |
|---|---|
| Flight time | N/A |
| Altitude | 41000 |
| Route | HDO9E/04 HDO DCT LALES DCT PATAK DCT PARAK DCT DONIV DCT NISVA DCT NIKTI N127 LOPTI UN127 IMR UG80 BANRO UN128 RDS UN129 KUMBI L612 BLT A16 CVO DCT HECA |
| Aircraft | A359/H-SDE2E3GHIJ3J4J5LM1ORWXY/LB1D1 |
Departure
| Time | 2026-02-17 13:33 |
|---|---|
| Airport | Dresden Airport (EDDC) |
Arrival
| Time | N/A |
|---|---|
| Airport | Cairo International Airport (HECA) |
| Time | Latitude | Longitude | Altitude | Speed | Heading |
|---|---|---|---|---|---|
| 2026-02-17 12:53 | 51.12670 | 13.76497 | 758 ft | 0 kts | 220° |
| 2026-02-17 13:25 | 51.12674 | 13.76502 | 758 ft | 2 kts | 220° |
| 2026-02-17 13:26 | 51.12685 | 13.76517 | 753 ft | 3 kts | 225° |
| 2026-02-17 13:26 | 51.12694 | 13.76534 | 752 ft | 2 kts | 240° |
| 2026-02-17 13:26 | 51.12699 | 13.76551 | 756 ft | 1 kts | 254° |
| 2026-02-17 13:27 | 51.12701 | 13.76569 | 753 ft | 0 kts | 269° |
| 2026-02-17 13:27 | 51.12701 | 13.76570 | 753 ft | 0 kts | 270° |
| 2026-02-17 13:27 | 51.12705 | 13.76564 | 755 ft | 1 kts | 303° |
| 2026-02-17 13:27 | 51.12706 | 13.76563 | 755 ft | 0 kts | 310° |
| 2026-02-17 13:28 | 51.12709 | 13.76557 | 754 ft | 2 kts | 310° |
| 2026-02-17 13:28 | 51.12727 | 13.76525 | 752 ft | 6 kts | 310° |
| 2026-02-17 13:28 | 51.12739 | 13.76501 | 751 ft | 0 kts | 311° |
| 2026-02-17 13:29 | 51.12744 | 13.76493 | 752 ft | 4 kts | 310° |
| 2026-02-17 13:29 | 51.12774 | 13.76421 | 751 ft | 9 kts | 284° |
| 2026-02-17 13:29 | 51.12742 | 13.76329 | 749 ft | 12 kts | 225° |
| 2026-02-17 13:29 | 51.12691 | 13.76254 | 752 ft | 14 kts | 221° |
| 2026-02-17 13:30 | 51.12622 | 13.76158 | 754 ft | 14 kts | 221° |
| 2026-02-17 13:30 | 51.12543 | 13.76050 | 760 ft | 15 kts | 221° |
| 2026-02-17 13:30 | 51.12467 | 13.75946 | 766 ft | 14 kts | 220° |
| 2026-02-17 13:31 | 51.12378 | 13.75741 | 768 ft | 11 kts | 284° |
| 2026-02-17 13:31 | 51.12405 | 13.75633 | 768 ft | 11 kts | 297° |
| 2026-02-17 13:31 | 51.12461 | 13.75525 | 771 ft | 11 kts | 333° |
| 2026-02-17 13:31 | 51.12510 | 13.75540 | 771 ft | 8 kts | 35° |
| 2026-02-17 13:32 | 51.12520 | 13.75555 | 770 ft | 1 kts | 42° |
| 2026-02-17 13:32 | 51.12612 | 13.75676 | 768 ft | 52 kts | 40° |
| 2026-02-17 13:32 | 51.13079 | 13.76314 | 748 ft | 130 kts | 40° |
| 2026-02-17 13:32 | 51.13895 | 13.77410 | 957 ft | 178 kts | 39° |
| 2026-02-17 13:33 | 51.14856 | 13.78749 | 1586 ft | 205 kts | 40° |
| 2026-02-17 13:33 | 51.15946 | 13.80342 | 2232 ft | 238 kts | 39° |
| 2026-02-17 13:33 | 51.17243 | 13.82199 | 3177 ft | 246 kts | 37° |
| 2026-02-17 13:33 | 51.18542 | 13.83997 | 3949 ft | 252 kts | 37° |
| 2026-02-17 13:34 | 51.19795 | 13.85971 | 4590 ft | 264 kts | 50° |
| 2026-02-17 13:34 | 51.20428 | 13.88738 | 5280 ft | 276 kts | 84° |
| 2026-02-17 13:34 | 51.20095 | 13.91765 | 6024 ft | 282 kts | 112° |
| 2026-02-17 13:35 | 51.17621 | 13.96626 | 7498 ft | 287 kts | 137° |
| 2026-02-17 13:35 | 51.16181 | 13.98864 | 8261 ft | 291 kts | 136° |
| 2026-02-17 13:35 | 51.14744 | 14.01140 | 9009 ft | 295 kts | 136° |
| 2026-02-17 13:35 | 51.13291 | 14.03480 | 9777 ft | 299 kts | 135° |
| 2026-02-17 13:36 | 51.11807 | 14.05897 | 10274 ft | 313 kts | 135° |
| 2026-02-17 13:36 | 51.10243 | 14.08452 | 10607 ft | 331 kts | 135° |
| 2026-02-17 13:36 | 51.08602 | 14.11137 | 10922 ft | 347 kts | 135° |
| 2026-02-17 13:36 | 51.06879 | 14.13951 | 11256 ft | 362 kts | 135° |
| 2026-02-17 13:37 | 51.05094 | 14.16854 | 11735 ft | 371 kts | 135° |
| 2026-02-17 13:37 | 51.03283 | 14.19806 | 12313 ft | 376 kts | 135° |
| 2026-02-17 13:37 | 51.01446 | 14.22804 | 12954 ft | 380 kts | 135° |
| 2026-02-17 13:37 | 50.99595 | 14.25826 | 13561 ft | 384 kts | 135° |
| 2026-02-17 13:38 | 50.97734 | 14.28862 | 14096 ft | 387 kts | 135° |
| 2026-02-17 13:38 | 50.95845 | 14.31940 | 14688 ft | 390 kts | 135° |
| 2026-02-17 13:38 | 50.93947 | 14.35030 | 15265 ft | 393 kts | 135° |
| 2026-02-17 13:39 | 50.90140 | 14.41332 | 16448 ft | 399 kts | 134° |
| 2026-02-17 13:39 | 50.88282 | 14.44547 | 17036 ft | 402 kts | 133° |
| 2026-02-17 13:39 | 50.86399 | 14.47840 | 17615 ft | 405 kts | 133° |
| 2026-02-17 13:39 | 50.84502 | 14.51157 | 18183 ft | 408 kts | 133° |
| 2026-02-17 13:40 | 50.82585 | 14.54493 | 18660 ft | 411 kts | 133° |
| 2026-02-17 13:40 | 50.80647 | 14.57845 | 19136 ft | 415 kts | 133° |
| 2026-02-17 13:40 | 50.78693 | 14.61209 | 19628 ft | 418 kts | 133° |
| 2026-02-17 13:40 | 50.76717 | 14.64598 | 20110 ft | 420 kts | 133° |
| 2026-02-17 13:41 | 50.74727 | 14.68004 | 20607 ft | 424 kts | 133° |
| 2026-02-17 13:41 | 50.72717 | 14.71435 | 21086 ft | 427 kts | 133° |
| 2026-02-17 13:41 | 50.70697 | 14.74881 | 21571 ft | 430 kts | 133° |
| 2026-02-17 13:41 | 50.68658 | 14.78355 | 22054 ft | 433 kts | 133° |
| 2026-02-17 13:42 | 50.66607 | 14.81844 | 22560 ft | 436 kts | 133° |
| 2026-02-17 13:42 | 50.64537 | 14.85361 | 23053 ft | 439 kts | 133° |
| 2026-02-17 13:42 | 50.62451 | 14.88902 | 23508 ft | 442 kts | 133° |
| 2026-02-17 13:43 | 50.58234 | 14.96042 | 24281 ft | 448 kts | 133° |
| 2026-02-17 13:43 | 50.56105 | 14.99640 | 24660 ft | 452 kts | 133° |
| 2026-02-17 13:43 | 50.53965 | 15.03253 | 25046 ft | 455 kts | 133° |
| 2026-02-17 13:43 | 50.51801 | 15.06911 | 25430 ft | 458 kts | 133° |
| 2026-02-17 13:44 | 50.49671 | 15.10506 | 25808 ft | 461 kts | 133° |
| 2026-02-17 13:44 | 50.47453 | 15.14233 | 26199 ft | 464 kts | 133° |
| 2026-02-17 13:44 | 50.45254 | 15.17916 | 26595 ft | 468 kts | 133° |
| 2026-02-17 13:44 | 50.43056 | 15.21593 | 26996 ft | 471 kts | 133° |
| 2026-02-17 13:45 | 50.40843 | 15.25291 | 27414 ft | 474 kts | 133° |
| 2026-02-17 13:45 | 50.38581 | 15.29068 | 27817 ft | 477 kts | 133° |
| 2026-02-17 13:45 | 50.36297 | 15.32875 | 28233 ft | 481 kts | 133° |
| 2026-02-17 13:45 | 50.33997 | 15.36705 | 28635 ft | 485 kts | 133° |
| 2026-02-17 13:46 | 50.31680 | 15.40558 | 29042 ft | 488 kts | 133° |
| 2026-02-17 13:46 | 50.29347 | 15.44432 | 29427 ft | 491 kts | 133° |
| 2026-02-17 13:46 | 50.26992 | 15.48337 | 29844 ft | 495 kts | 133° |
| 2026-02-17 13:47 | 50.22233 | 15.56208 | 30448 ft | 501 kts | 134° |
| 2026-02-17 13:47 | 50.19834 | 15.60166 | 30745 ft | 504 kts | 134° |
| 2026-02-17 13:47 | 50.17419 | 15.64145 | 31048 ft | 507 kts | 134° |
| 2026-02-17 13:47 | 50.15949 | 15.66564 | 31222 ft | 508 kts | 134° |
| 2026-02-17 13:48 | 50.13070 | 15.71294 | 31581 ft | 511 kts | 134° |
| 2026-02-17 13:48 | 50.10616 | 15.75319 | 31861 ft | 514 kts | 134° |
| 2026-02-17 13:48 | 50.08145 | 15.79365 | 32103 ft | 517 kts | 134° |
| 2026-02-17 13:48 | 50.05663 | 15.83423 | 32355 ft | 519 kts | 134° |
| 2026-02-17 13:49 | 50.03167 | 15.87497 | 32691 ft | 519 kts | 134° |
| 2026-02-17 13:49 | 50.00677 | 15.91555 | 33046 ft | 519 kts | 134° |
| 2026-02-17 13:49 | 49.98181 | 15.95618 | 33395 ft | 519 kts | 134° |
| 2026-02-17 13:49 | 49.95685 | 15.99672 | 33719 ft | 520 kts | 134° |
| 2026-02-17 13:50 | 49.93188 | 16.03724 | 34026 ft | 519 kts | 134° |
| 2026-02-17 13:50 | 49.90699 | 16.07754 | 34306 ft | 520 kts | 134° |
| 2026-02-17 13:50 | 49.88195 | 16.11802 | 34578 ft | 520 kts | 134° |
| 2026-02-17 13:51 | 49.83180 | 16.19891 | 35130 ft | 520 kts | 135° |
| 2026-02-17 13:51 | 49.80673 | 16.23925 | 35385 ft | 520 kts | 135° |
| 2026-02-17 13:51 | 49.78159 | 16.27963 | 35651 ft | 521 kts | 135° |
| 2026-02-17 13:51 | 49.75692 | 16.31919 | 35910 ft | 521 kts | 135° |
| 2026-02-17 13:52 | 49.73158 | 16.35968 | 36182 ft | 522 kts | 135° |
| 2026-02-17 13:52 | 49.70634 | 16.40002 | 36433 ft | 522 kts | 135° |
| 2026-02-17 13:52 | 49.68108 | 16.44036 | 36691 ft | 523 kts | 135° |
| 2026-02-17 13:52 | 49.65574 | 16.48077 | 36957 ft | 523 kts | 135° |
| 2026-02-17 13:53 | 49.63044 | 16.52106 | 37200 ft | 524 kts | 135° |
| 2026-02-17 13:53 | 49.60510 | 16.56134 | 37450 ft | 524 kts | 135° |
| 2026-02-17 13:53 | 49.57970 | 16.60163 | 37720 ft | 524 kts | 135° |
| 2026-02-17 13:53 | 49.55428 | 16.64190 | 37969 ft | 524 kts | 135° |
| 2026-02-17 13:54 | 49.52880 | 16.68219 | 38195 ft | 525 kts | 135° |
| 2026-02-17 13:54 | 49.50333 | 16.72240 | 38451 ft | 525 kts | 135° |
| 2026-02-17 13:54 | 49.47783 | 16.76257 | 38650 ft | 525 kts | 135° |
| 2026-02-17 13:55 | 49.42720 | 16.84218 | 39056 ft | 524 kts | 135° |
| 2026-02-17 13:55 | 49.40165 | 16.88227 | 39236 ft | 524 kts | 135° |
| 2026-02-17 13:55 | 49.37612 | 16.92225 | 39417 ft | 524 kts | 136° |
| 2026-02-17 13:55 | 49.35063 | 16.96211 | 39592 ft | 524 kts | 136° |
| 2026-02-17 13:56 | 49.32503 | 17.00207 | 39770 ft | 524 kts | 136° |
| 2026-02-17 13:56 | 49.30808 | 17.02849 | 39867 ft | 524 kts | 136° |
| 2026-02-17 13:56 | 49.28213 | 17.06891 | 40034 ft | 525 kts | 136° |
| 2026-02-17 13:56 | 49.25650 | 17.10875 | 40199 ft | 524 kts | 136° |
| 2026-02-17 13:57 | 49.23125 | 17.14795 | 40378 ft | 524 kts | 136° |
| 2026-02-17 13:57 | 49.20566 | 17.18760 | 40536 ft | 524 kts | 136° |
| 2026-02-17 13:57 | 49.18009 | 17.22718 | 40691 ft | 524 kts | 136° |
| 2026-02-17 13:57 | 49.15444 | 17.26680 | 40739 ft | 524 kts | 136° |
| 2026-02-17 13:58 | 49.10315 | 17.34586 | 40743 ft | 524 kts | 136° |
| 2026-02-17 13:59 | 49.02609 | 17.46417 | 40741 ft | 524 kts | 136° |
| 2026-02-17 13:59 | 48.97491 | 17.54244 | 40751 ft | 527 kts | 136° |
| 2026-02-17 14:00 | 48.92284 | 17.62182 | 40753 ft | 533 kts | 136° |
| 2026-02-17 14:00 | 48.87077 | 17.70167 | 40747 ft | 537 kts | 134° |
| 2026-02-17 14:01 | 48.82203 | 17.78778 | 40766 ft | 538 kts | 131° |
| 2026-02-17 14:01 | 48.77429 | 17.87523 | 40772 ft | 538 kts | 131° |
| 2026-02-17 14:02 | 48.72668 | 17.96261 | 40768 ft | 537 kts | 131° |
| 2026-02-17 14:02 | 48.67864 | 18.05020 | 40766 ft | 537 kts | 131° |
| 2026-02-17 14:03 | 48.60730 | 18.17938 | 40762 ft | 536 kts | 131° |
| 2026-02-17 14:03 | 48.55972 | 18.26515 | 40755 ft | 536 kts | 131° |
| 2026-02-17 14:04 | 48.51179 | 18.35130 | 40747 ft | 535 kts | 131° |
| 2026-02-17 14:04 | 48.46413 | 18.43667 | 40746 ft | 535 kts | 131° |
| 2026-02-17 14:05 | 48.41752 | 18.51992 | 40743 ft | 535 kts | 131° |
| 2026-02-17 14:05 | 48.36973 | 18.60501 | 40742 ft | 534 kts | 132° |
| 2026-02-17 14:06 | 48.32168 | 18.69027 | 40737 ft | 534 kts | 132° |
| 2026-02-17 14:07 | 48.24972 | 18.81747 | 40732 ft | 533 kts | 132° |
| 2026-02-17 14:07 | 48.20165 | 18.90211 | 40725 ft | 533 kts | 132° |
| 2026-02-17 14:08 | 48.15389 | 18.98593 | 40724 ft | 532 kts | 132° |
| 2026-02-17 14:08 | 48.10543 | 19.06975 | 40717 ft | 531 kts | 135° |
| 2026-02-17 14:09 | 48.04798 | 19.13670 | 40721 ft | 524 kts | 154° |
| 2026-02-17 14:09 | 47.98107 | 19.17831 | 40714 ft | 520 kts | 162° |
| 2026-02-17 14:10 | 47.91311 | 19.21345 | 40721 ft | 520 kts | 164° |
| 2026-02-17 14:10 | 47.84434 | 19.24825 | 40716 ft | 520 kts | 163° |
| 2026-02-17 14:11 | 47.74242 | 19.30075 | 40715 ft | 520 kts | 163° |
| 2026-02-17 14:11 | 47.67405 | 19.33621 | 40712 ft | 520 kts | 163° |
| 2026-02-17 14:12 | 47.60576 | 19.37156 | 40715 ft | 520 kts | 163° |
| 2026-02-17 14:12 | 47.53750 | 19.40677 | 40711 ft | 520 kts | 163° |
| 2026-02-17 14:13 | 47.46973 | 19.44161 | 40724 ft | 520 kts | 163° |
| 2026-02-17 14:13 | 47.40139 | 19.47663 | 40719 ft | 519 kts | 163° |
| 2026-02-17 14:14 | 47.33313 | 19.51154 | 40721 ft | 519 kts | 163° |
| 2026-02-17 14:15 | 47.23079 | 19.56368 | 40722 ft | 519 kts | 163° |
| 2026-02-17 14:15 | 47.16258 | 19.59833 | 40720 ft | 519 kts | 163° |
| 2026-02-17 14:16 | 47.09415 | 19.63300 | 40720 ft | 519 kts | 163° |
| 2026-02-17 14:16 | 47.02594 | 19.66746 | 40717 ft | 519 kts | 163° |
| 2026-02-17 14:17 | 46.95814 | 19.70160 | 40718 ft | 518 kts | 163° |
| 2026-02-17 14:17 | 46.88995 | 19.73585 | 40717 ft | 518 kts | 163° |
| 2026-02-17 14:18 | 46.82300 | 19.76940 | 40718 ft | 518 kts | 163° |
| 2026-02-17 14:18 | 46.75532 | 19.80321 | 40718 ft | 518 kts | 163° |
| 2026-02-17 14:19 | 46.65313 | 19.85410 | 40719 ft | 518 kts | 163° |
| 2026-02-17 14:19 | 46.58493 | 19.88795 | 40716 ft | 518 kts | 163° |
| 2026-02-17 14:20 | 46.51678 | 19.92168 | 40718 ft | 518 kts | 163° |
| 2026-02-17 14:20 | 46.44858 | 19.95536 | 40719 ft | 517 kts | 163° |
| 2026-02-17 14:21 | 46.38198 | 19.98817 | 40717 ft | 517 kts | 163° |
| 2026-02-17 14:21 | 46.31373 | 20.02168 | 40714 ft | 517 kts | 163° |
| 2026-02-17 14:22 | 46.21144 | 20.07175 | 40714 ft | 517 kts | 164° |
| 2026-02-17 14:23 | 46.11228 | 20.13392 | 40716 ft | 521 kts | 155° |
| 2026-02-17 14:23 | 46.04927 | 20.18213 | 40712 ft | 521 kts | 154° |
| 2026-02-17 14:24 | 45.98580 | 20.23169 | 40706 ft | 521 kts | 154° |
| 2026-02-17 14:24 | 45.92362 | 20.28018 | 40705 ft | 521 kts | 154° |
| 2026-02-17 14:25 | 45.85987 | 20.32959 | 40703 ft | 521 kts | 155° |
| 2026-02-17 14:25 | 45.79595 | 20.37888 | 40700 ft | 521 kts | 155° |
| 2026-02-17 14:26 | 45.73345 | 20.42694 | 40703 ft | 521 kts | 155° |
| 2026-02-17 14:27 | 45.63753 | 20.50048 | 40699 ft | 521 kts | 155° |
| 2026-02-17 14:27 | 45.57358 | 20.54937 | 40696 ft | 521 kts | 155° |
| 2026-02-17 14:28 | 45.50992 | 20.59793 | 40694 ft | 521 kts | 155° |
| 2026-02-17 14:28 | 45.44596 | 20.64657 | 40691 ft | 521 kts | 155° |
| 2026-02-17 14:29 | 45.38334 | 20.69407 | 40689 ft | 521 kts | 155° |
| 2026-02-17 14:29 | 45.31939 | 20.74244 | 40684 ft | 521 kts | 155° |
| 2026-02-17 14:30 | 45.25536 | 20.79074 | 40684 ft | 521 kts | 155° |
| 2026-02-17 14:31 | 45.12787 | 20.88658 | 40678 ft | 521 kts | 155° |
| 2026-02-17 14:31 | 45.06395 | 20.93446 | 40669 ft | 520 kts | 155° |
| 2026-02-17 14:32 | 44.99997 | 20.98224 | 40676 ft | 520 kts | 155° |
| 2026-02-17 14:32 | 44.93593 | 21.02996 | 40667 ft | 520 kts | 155° |
| 2026-02-17 14:33 | 44.87190 | 21.07756 | 40669 ft | 520 kts | 155° |
| 2026-02-17 14:33 | 44.77611 | 21.14851 | 40663 ft | 520 kts | 155° |
| 2026-02-17 14:34 | 44.71418 | 21.20155 | 40660 ft | 522 kts | 149° |
| 2026-02-17 14:35 | 44.62371 | 21.28695 | 40663 ft | 522 kts | 149° |
| 2026-02-17 14:35 | 44.56356 | 21.34399 | 40661 ft | 522 kts | 149° |
| 2026-02-17 14:36 | 44.50325 | 21.40089 | 40654 ft | 522 kts | 149° |
| 2026-02-17 14:36 | 44.44302 | 21.45750 | 40649 ft | 522 kts | 149° |
| 2026-02-17 14:37 | 44.38308 | 21.51368 | 40651 ft | 522 kts | 149° |
| 2026-02-17 14:37 | 44.32296 | 21.56989 | 40643 ft | 521 kts | 149° |
| 2026-02-17 14:38 | 44.26328 | 21.62553 | 40639 ft | 521 kts | 149° |
| 2026-02-17 14:38 | 44.20282 | 21.68177 | 40630 ft | 521 kts | 149° |
| 2026-02-17 14:39 | 44.11297 | 21.76512 | 40622 ft | 521 kts | 149° |
| 2026-02-17 14:39 | 44.05263 | 21.82091 | 40613 ft | 521 kts | 149° |
| 2026-02-17 14:40 | 43.99225 | 21.87661 | 40607 ft | 521 kts | 149° |
| 2026-02-17 14:41 | 43.90156 | 21.96000 | 40599 ft | 521 kts | 149° |
| 2026-02-17 14:41 | 43.84113 | 22.01539 | 40595 ft | 521 kts | 149° |
| 2026-02-17 14:42 | 43.79094 | 22.06129 | 40601 ft | 520 kts | 149° |
| 2026-02-17 14:42 | 43.73053 | 22.11642 | 40589 ft | 520 kts | 149° |
| 2026-02-17 14:43 | 43.63995 | 22.19883 | 40579 ft | 520 kts | 149° |
| 2026-02-17 14:43 | 43.57949 | 22.25365 | 40568 ft | 520 kts | 150° |
| 2026-02-17 14:44 | 43.51903 | 22.30834 | 40575 ft | 519 kts | 150° |
| 2026-02-17 14:44 | 43.45899 | 22.36252 | 40561 ft | 519 kts | 150° |
| 2026-02-17 14:45 | 43.39863 | 22.41687 | 40557 ft | 519 kts | 150° |
| 2026-02-17 14:45 | 43.33814 | 22.47119 | 40547 ft | 519 kts | 150° |
| 2026-02-17 14:46 | 43.27773 | 22.52532 | 40534 ft | 518 kts | 150° |
| 2026-02-17 14:47 | 43.18716 | 22.60622 | 40516 ft | 518 kts | 150° |
| 2026-02-17 14:47 | 43.12678 | 22.65999 | 40501 ft | 518 kts | 150° |
| 2026-02-17 14:48 | 43.06630 | 22.71373 | 40492 ft | 517 kts | 150° |
| 2026-02-17 14:48 | 43.00595 | 22.76725 | 40480 ft | 517 kts | 150° |
| 2026-02-17 14:49 | 42.94565 | 22.82105 | 40463 ft | 518 kts | 149° |
| 2026-02-17 14:49 | 42.88659 | 22.87728 | 40457 ft | 518 kts | 148° |
| 2026-02-17 14:50 | 42.82785 | 22.93406 | 40442 ft | 518 kts | 148° |
| 2026-02-17 14:50 | 42.76882 | 22.99050 | 40430 ft | 518 kts | 148° |
| 2026-02-17 14:51 | 42.68035 | 23.07422 | 40426 ft | 519 kts | 148° |
| 2026-02-17 14:51 | 42.62111 | 23.13001 | 40429 ft | 519 kts | 148° |
| 2026-02-17 14:52 | 42.56184 | 23.18572 | 40425 ft | 518 kts | 149° |
| 2026-02-17 14:52 | 42.50251 | 23.24136 | 40420 ft | 518 kts | 149° |
| 2026-02-17 14:53 | 42.44326 | 23.29681 | 40416 ft | 518 kts | 149° |
| 2026-02-17 14:53 | 42.38393 | 23.35221 | 40405 ft | 518 kts | 149° |
| 2026-02-17 14:54 | 42.32468 | 23.40740 | 40397 ft | 517 kts | 149° |
| 2026-02-17 14:55 | 42.23595 | 23.48983 | 40395 ft | 517 kts | 149° |
| 2026-02-17 14:55 | 42.17661 | 23.54478 | 40391 ft | 517 kts | 149° |
| 2026-02-17 14:56 | 42.11729 | 23.59958 | 40393 ft | 517 kts | 149° |
| 2026-02-17 14:56 | 42.05799 | 23.65427 | 40392 ft | 517 kts | 149° |
| 2026-02-17 14:57 | 41.99897 | 23.70852 | 40393 ft | 517 kts | 149° |
| 2026-02-17 14:57 | 41.93962 | 23.76301 | 40394 ft | 517 kts | 149° |
| 2026-02-17 14:58 | 41.88031 | 23.81731 | 40391 ft | 517 kts | 149° |
| 2026-02-17 14:58 | 41.82141 | 23.87113 | 40392 ft | 517 kts | 149° |
| 2026-02-17 14:59 | 41.73314 | 23.95154 | 40394 ft | 517 kts | 149° |
| 2026-02-17 14:59 | 41.67358 | 24.00565 | 40392 ft | 517 kts | 150° |
| 2026-02-17 15:00 | 41.61409 | 24.05956 | 40389 ft | 517 kts | 150° |
| 2026-02-17 15:00 | 41.55510 | 24.11292 | 40377 ft | 517 kts | 150° |
| 2026-02-17 15:01 | 41.49558 | 24.16657 | 40384 ft | 517 kts | 150° |
| 2026-02-17 15:01 | 41.43589 | 24.21980 | 40368 ft | 516 kts | 150° |
| 2026-02-17 15:02 | 41.37609 | 24.27292 | 40376 ft | 516 kts | 150° |
| 2026-02-17 15:03 | 41.28649 | 24.35248 | 40370 ft | 516 kts | 150° |
| 2026-02-17 15:03 | 41.22679 | 24.40538 | 40363 ft | 516 kts | 150° |
| 2026-02-17 15:04 | 41.16497 | 24.45311 | 40349 ft | 512 kts | 156° |
| 2026-02-17 15:04 | 41.10188 | 24.49502 | 40342 ft | 511 kts | 158° |
| 2026-02-17 15:05 | 41.03803 | 24.53593 | 40334 ft | 511 kts | 158° |
| 2026-02-17 15:05 | 40.97395 | 24.57663 | 40329 ft | 511 kts | 158° |
| 2026-02-17 15:06 | 40.91000 | 24.61724 | 40329 ft | 511 kts | 158° |
| 2026-02-17 15:06 | 40.84603 | 24.65793 | 40327 ft | 511 kts | 158° |
| 2026-02-17 15:07 | 40.74998 | 24.71880 | 40336 ft | 511 kts | 158° |
| 2026-02-17 15:07 | 40.68599 | 24.75946 | 40341 ft | 511 kts | 158° |
| 2026-02-17 15:08 | 40.62194 | 24.80004 | 40345 ft | 510 kts | 158° |
| 2026-02-17 15:08 | 40.55790 | 24.84037 | 40358 ft | 510 kts | 158° |
| 2026-02-17 15:09 | 40.49391 | 24.88062 | 40353 ft | 510 kts | 158° |
| 2026-02-17 15:09 | 40.43039 | 24.92042 | 40345 ft | 510 kts | 158° |
| 2026-02-17 15:10 | 40.36636 | 24.96049 | 40347 ft | 510 kts | 158° |
| 2026-02-17 15:11 | 40.27045 | 25.02039 | 40350 ft | 510 kts | 159° |
| 2026-02-17 15:11 | 40.20660 | 25.06016 | 40344 ft | 510 kts | 159° |
| 2026-02-17 15:12 | 40.14252 | 25.10000 | 40341 ft | 510 kts | 159° |
| 2026-02-17 15:12 | 40.07854 | 25.13969 | 40335 ft | 509 kts | 159° |
| 2026-02-17 15:13 | 40.01447 | 25.17935 | 40328 ft | 509 kts | 159° |
| 2026-02-17 15:13 | 39.95056 | 25.21894 | 40328 ft | 510 kts | 158° |
| 2026-02-17 15:14 | 39.89090 | 25.26994 | 40331 ft | 518 kts | 146° |
| 2026-02-17 15:14 | 39.83559 | 25.33053 | 40330 ft | 519 kts | 143° |
| 2026-02-17 15:15 | 39.75424 | 25.42361 | 40344 ft | 519 kts | 143° |
| 2026-02-17 15:15 | 39.70142 | 25.48373 | 40358 ft | 519 kts | 144° |
| 2026-02-17 15:16 | 39.64699 | 25.54526 | 40367 ft | 519 kts | 144° |
| 2026-02-17 15:16 | 39.59261 | 25.60647 | 40372 ft | 519 kts | 144° |
| 2026-02-17 15:17 | 39.53804 | 25.66776 | 40376 ft | 518 kts | 144° |
| 2026-02-17 15:17 | 39.48482 | 25.72742 | 40376 ft | 518 kts | 144° |
| 2026-02-17 15:18 | 39.43062 | 25.78807 | 40380 ft | 518 kts | 144° |
| 2026-02-17 15:19 | 39.35152 | 25.87633 | 40391 ft | 518 kts | 144° |
| 2026-02-17 15:19 | 39.29731 | 25.93668 | 40394 ft | 517 kts | 144° |
| 2026-02-17 15:20 | 39.24246 | 25.99692 | 40401 ft | 517 kts | 145° |
| 2026-02-17 15:20 | 39.18730 | 26.05628 | 40400 ft | 517 kts | 145° |
| 2026-02-17 15:21 | 39.13206 | 26.11535 | 40414 ft | 516 kts | 145° |
| 2026-02-17 15:21 | 39.07680 | 26.17437 | 40419 ft | 517 kts | 145° |
| 2026-02-17 15:22 | 39.02151 | 26.23337 | 40429 ft | 517 kts | 145° |
| 2026-02-17 15:22 | 38.96609 | 26.29239 | 40431 ft | 517 kts | 145° |
| 2026-02-17 15:23 | 38.88296 | 26.38069 | 40436 ft | 517 kts | 145° |
| 2026-02-17 15:23 | 38.82784 | 26.43909 | 40441 ft | 517 kts | 145° |
| 2026-02-17 15:24 | 38.77309 | 26.49910 | 40443 ft | 519 kts | 144° |
| 2026-02-17 15:24 | 38.71903 | 26.55996 | 40444 ft | 519 kts | 144° |
| 2026-02-17 15:25 | 38.66478 | 26.62101 | 40452 ft | 519 kts | 144° |
| 2026-02-17 15:25 | 38.61069 | 26.68149 | 40461 ft | 519 kts | 144° |
| 2026-02-17 15:26 | 38.55666 | 26.74162 | 40464 ft | 518 kts | 144° |
| 2026-02-17 15:27 | 38.47500 | 26.83224 | 40473 ft | 518 kts | 144° |
| 2026-02-17 15:27 | 38.42215 | 26.89073 | 40473 ft | 518 kts | 144° |
| 2026-02-17 15:28 | 38.37649 | 26.94118 | 40466 ft | 518 kts | 144° |
| 2026-02-17 15:28 | 38.32079 | 26.99907 | 40474 ft | 513 kts | 151° |
| 2026-02-17 15:29 | 38.25884 | 27.04084 | 40469 ft | 505 kts | 160° |
| 2026-02-17 15:29 | 38.19464 | 27.07715 | 40465 ft | 504 kts | 162° |
| 2026-02-17 15:30 | 38.13007 | 27.11236 | 40482 ft | 505 kts | 162° |
| 2026-02-17 15:30 | 38.06564 | 27.14760 | 40495 ft | 506 kts | 162° |
| 2026-02-17 15:31 | 37.96880 | 27.20092 | 40531 ft | 505 kts | 162° |
| 2026-02-17 15:31 | 37.90431 | 27.23646 | 40538 ft | 505 kts | 162° |
| 2026-02-17 15:32 | 37.83985 | 27.27189 | 40542 ft | 505 kts | 162° |
| 2026-02-17 15:32 | 37.77551 | 27.30716 | 40547 ft | 505 kts | 162° |
| 2026-02-17 15:33 | 37.71106 | 27.34242 | 40556 ft | 505 kts | 162° |
| 2026-02-17 15:33 | 37.64690 | 27.37739 | 40571 ft | 505 kts | 162° |
| 2026-02-17 15:34 | 37.58255 | 27.41309 | 40573 ft | 505 kts | 161° |
| 2026-02-17 15:35 | 37.48769 | 27.46799 | 40571 ft | 505 kts | 161° |
| 2026-02-17 15:35 | 37.42330 | 27.50288 | 40564 ft | 503 kts | 163° |
| 2026-02-17 15:36 | 37.35863 | 27.53611 | 40560 ft | 503 kts | 164° |
| 2026-02-17 15:36 | 37.29392 | 27.56949 | 40553 ft | 502 kts | 164° |
| 2026-02-17 15:37 | 37.23117 | 27.60274 | 40558 ft | 505 kts | 163° |
| 2026-02-17 15:37 | 37.16739 | 27.63753 | 40552 ft | 507 kts | 163° |
| 2026-02-17 15:38 | 37.10277 | 27.67275 | 40563 ft | 505 kts | 163° |
| 2026-02-17 15:38 | 37.03830 | 27.70767 | 40589 ft | 504 kts | 163° |
| 2026-02-17 15:39 | 36.94214 | 27.75945 | 40618 ft | 504 kts | 163° |
| 2026-02-17 15:39 | 36.87732 | 27.79427 | 40631 ft | 504 kts | 163° |
| 2026-02-17 15:40 | 36.81334 | 27.82860 | 40632 ft | 503 kts | 164° |
| 2026-02-17 15:40 | 36.74895 | 27.86308 | 40631 ft | 503 kts | 164° |
| 2026-02-17 15:41 | 36.68467 | 27.89743 | 40630 ft | 502 kts | 164° |
| 2026-02-17 15:41 | 36.62042 | 27.93098 | 40633 ft | 501 kts | 165° |
| 2026-02-17 15:42 | 36.55620 | 27.96419 | 40635 ft | 500 kts | 165° |
| 2026-02-17 15:43 | 36.46015 | 28.01435 | 40633 ft | 499 kts | 164° |
| 2026-02-17 15:43 | 36.39668 | 28.04963 | 40632 ft | 500 kts | 163° |
| 2026-02-17 15:44 | 36.33277 | 28.08211 | 40636 ft | 489 kts | 171° |
| 2026-02-17 15:44 | 36.26717 | 28.10224 | 40644 ft | 484 kts | 175° |
| 2026-02-17 15:45 | 36.20177 | 28.11960 | 40647 ft | 483 kts | 175° |
| 2026-02-17 15:45 | 36.13606 | 28.13651 | 40659 ft | 482 kts | 176° |
| 2026-02-17 15:46 | 36.07032 | 28.15353 | 40678 ft | 482 kts | 175° |
| 2026-02-17 15:46 | 36.00485 | 28.17060 | 40692 ft | 481 kts | 175° |
| 2026-02-17 15:47 | 35.90707 | 28.19610 | 40701 ft | 480 kts | 176° |
| 2026-02-17 15:47 | 35.84207 | 28.21301 | 40716 ft | 480 kts | 176° |
| 2026-02-17 15:48 | 35.77674 | 28.22997 | 40716 ft | 479 kts | 176° |
| 2026-02-17 15:48 | 35.71142 | 28.24691 | 40720 ft | 479 kts | 176° |
| 2026-02-17 15:49 | 35.64620 | 28.26371 | 40731 ft | 479 kts | 176° |
| 2026-02-17 15:49 | 35.58130 | 28.28045 | 40747 ft | 478 kts | 176° |
| 2026-02-17 15:50 | 35.51654 | 28.29712 | 40747 ft | 478 kts | 176° |
| 2026-02-17 15:51 | 35.41902 | 28.32216 | 40745 ft | 477 kts | 176° |
| 2026-02-17 15:51 | 35.35418 | 28.33881 | 40757 ft | 476 kts | 176° |
| 2026-02-17 15:52 | 35.29005 | 28.35524 | 40761 ft | 476 kts | 176° |
| 2026-02-17 15:52 | 35.22564 | 28.37174 | 40768 ft | 475 kts | 176° |
| 2026-02-17 15:53 | 35.16085 | 28.38834 | 40777 ft | 475 kts | 176° |
| 2026-02-17 15:53 | 35.09623 | 28.40492 | 40780 ft | 475 kts | 176° |
| 2026-02-17 15:54 | 35.03157 | 28.42134 | 40781 ft | 474 kts | 176° |
| 2026-02-17 15:54 | 34.93474 | 28.44585 | 40787 ft | 474 kts | 177° |
| 2026-02-17 15:55 | 34.87016 | 28.46220 | 40794 ft | 474 kts | 177° |
| 2026-02-17 15:55 | 34.80562 | 28.47852 | 40800 ft | 474 kts | 177° |
| 2026-02-17 15:56 | 34.74108 | 28.49481 | 40807 ft | 474 kts | 177° |
| 2026-02-17 15:56 | 34.67646 | 28.51110 | 40811 ft | 474 kts | 177° |
| 2026-02-17 15:57 | 34.61210 | 28.52729 | 40818 ft | 474 kts | 177° |
| 2026-02-17 15:57 | 34.54758 | 28.54350 | 40818 ft | 473 kts | 177° |
| 2026-02-17 15:58 | 34.48304 | 28.55969 | 40822 ft | 473 kts | 177° |
| 2026-02-17 15:59 | 34.38637 | 28.58420 | 40833 ft | 473 kts | 177° |
| 2026-02-17 15:59 | 34.32218 | 28.60009 | 40835 ft | 473 kts | 177° |
| 2026-02-17 16:00 | 34.25768 | 28.61605 | 40835 ft | 473 kts | 177° |
| 2026-02-17 16:00 | 34.19322 | 28.63207 | 40850 ft | 472 kts | 177° |
| 2026-02-17 16:01 | 34.12880 | 28.64809 | 40847 ft | 472 kts | 177° |
| 2026-02-17 16:01 | 34.06448 | 28.66407 | 40845 ft | 472 kts | 177° |
| 2026-02-17 16:02 | 34.00029 | 28.68001 | 40865 ft | 471 kts | 177° |
| 2026-02-17 16:02 | 33.90493 | 28.70359 | 40863 ft | 470 kts | 177° |
| 2026-02-17 16:03 | 33.84082 | 28.71942 | 40862 ft | 470 kts | 177° |
| 2026-02-17 16:03 | 33.77700 | 28.73520 | 40869 ft | 470 kts | 177° |
| 2026-02-17 16:04 | 33.71418 | 28.76132 | 40870 ft | 490 kts | 162° |
| 2026-02-17 16:04 | 33.68487 | 28.78338 | 40868 ft | 504 kts | 152° |
| 2026-02-17 16:04 | 33.65803 | 28.81016 | 40889 ft | 511 kts | 148° |
| 2026-02-17 16:05 | 33.60578 | 28.86829 | 40884 ft | 514 kts | 146° |
| 2026-02-17 16:05 | 33.55385 | 28.92799 | 40887 ft | 513 kts | 146° |
| 2026-02-17 16:06 | 33.50244 | 28.98659 | 40887 ft | 513 kts | 146° |
| 2026-02-17 16:07 | 33.42449 | 29.07430 | 40896 ft | 512 kts | 146° |
| 2026-02-17 16:07 | 33.37248 | 29.13227 | 40896 ft | 511 kts | 146° |
| 2026-02-17 16:08 | 33.32057 | 29.19029 | 40904 ft | 511 kts | 146° |
| 2026-02-17 16:08 | 33.24339 | 29.27631 | 40912 ft | 510 kts | 146° |
| 2026-02-17 16:09 | 33.19130 | 29.33401 | 40914 ft | 510 kts | 147° |
| 2026-02-17 16:09 | 33.13932 | 29.39145 | 40909 ft | 509 kts | 147° |
| 2026-02-17 16:10 | 33.08735 | 29.44878 | 40925 ft | 509 kts | 147° |
| 2026-02-17 16:11 | 33.00948 | 29.53451 | 40929 ft | 509 kts | 147° |
| 2026-02-17 16:11 | 32.95749 | 29.59164 | 40929 ft | 508 kts | 147° |
| 2026-02-17 16:12 | 32.90541 | 29.64876 | 40940 ft | 508 kts | 147° |
| 2026-02-17 16:12 | 32.85375 | 29.70533 | 40935 ft | 508 kts | 147° |
| 2026-02-17 16:13 | 32.80164 | 29.76230 | 40945 ft | 509 kts | 147° |
| 2026-02-17 16:13 | 32.74955 | 29.81915 | 40945 ft | 509 kts | 147° |
| 2026-02-17 16:14 | 32.69735 | 29.87604 | 40953 ft | 509 kts | 147° |
| 2026-02-17 16:14 | 32.61895 | 29.96128 | 40955 ft | 510 kts | 147° |
| 2026-02-17 16:15 | 32.56657 | 30.01812 | 40960 ft | 511 kts | 147° |
| 2026-02-17 16:15 | 32.51410 | 30.07496 | 40962 ft | 511 kts | 147° |
| 2026-02-17 16:16 | 32.47040 | 30.12223 | 40963 ft | 511 kts | 147° |
| 2026-02-17 16:16 | 32.41790 | 30.17884 | 40968 ft | 511 kts | 147° |
| 2026-02-17 16:17 | 32.36522 | 30.23550 | 40975 ft | 512 kts | 147° |
| 2026-02-17 16:17 | 32.31248 | 30.29215 | 40974 ft | 512 kts | 148° |
| 2026-02-17 16:18 | 32.25969 | 30.34878 | 40977 ft | 512 kts | 148° |
| 2026-02-17 16:19 | 32.18060 | 30.43344 | 40980 ft | 512 kts | 148° |